Time;durP1;ratioP1;P1;durP2;ratioP2;P2;SDS_P1;SDS_P2;PMS_P1;PMS_P2;Temp;Humidity;BMP_temperature;BMP_pressure;BME280_temperature;BME280_humidity;BME280_pressure;Samples;Min_cycle;Max_cycle;Signal;HPM_P1;HPM_P2
2023/04/17 00:00:38;;;;;;;16.25;10.52;;;;;;;8.84;27.71;100340.09;7342816;19;20030;-65
2023/04/17 00:03:03;;;;;;;18.58;10.52;;;;;;;8.80;27.81;100333.22;7343773;19;20018;-64
2023/04/17 00:05:32;;;;;;;15.85;10.02;;;;;;;8.83;27.46;100334.84;7342680;19;20010;-69
2023/04/17 00:07:58;;;;;;;20.00;10.15;;;;;;;8.82;27.80;100344.63;7344452;19;20036;-69
2023/04/17 00:10:26;;;;;;;17.88;10.30;;;;;;;8.83;27.78;100338.34;7345996;19;20006;-71
2023/04/17 00:12:51;;;;;;;20.05;11.10;;;;;;;8.77;28.05;100356.44;7346119;19;20009;-72
2023/04/17 00:15:17;;;;;;;17.92;9.73;;;;;;;8.75;27.74;100356.53;7344859;19;20011;-66
2023/04/17 00:17:43;;;;;;;18.42;11.23;;;;;;;8.68;28.18;100339.19;7345648;19;20044;-65
2023/04/17 00:20:11;;;;;;;16.45;9.68;;;;;;;8.74;27.76;100350.34;7343847;19;20115;-68
2023/04/17 00:22:43;;;;;;;16.80;10.07;;;;;;;8.70;27.93;100343.47;7343610;19;20457;-64
2023/04/17 00:25:13;;;;;;;15.80;10.57;;;;;;;8.64;28.38;100341.13;7340693;19;20473;-69
2023/04/17 00:27:40;;;;;;;17.15;11.50;;;;;;;8.62;28.30;100343.00;7342744;19;20010;-65
2023/04/17 00:30:08;;;;;;;20.42;11.32;;;;;;;8.65;28.16;100339.34;7341366;19;20021;-63
2023/04/17 00:32:35;;;;;;;22.50;11.90;;;;;;;8.68;28.26;100344.50;7340605;19;20020;-63
2023/04/17 00:35:00;;;;;;;18.38;10.30;;;;;;;8.67;27.85;100345.44;7341878;19;20015;-65
2023/04/17 00:37:26;;;;;;;19.50;12.00;;;;;;;8.52;28.49;100341.78;7337640;19;20446;-64
2023/04/17 00:39:53;;;;;;;19.50;10.57;;;;;;;8.43;28.40;100344.06;7347863;19;20022;-65
2023/04/17 00:42:20;;;;;;;21.75;11.38;;;;;;;8.50;28.50;100346.31;7349878;19;20322;-64
2023/04/17 00:44:48;;;;;;;16.95;12.05;;;;;;;8.43;28.50;100350.22;7345824;19;20014;-63
2023/04/17 00:47:21;;;;;;;19.20;10.80;;;;;;;8.44;28.37;100343.13;7345832;19;20070;-63
2023/04/17 00:49:54;;;;;;;28.73;10.70;;;;;;;8.50;28.42;100348.97;7344424;19;20032;-64
2023/04/17 00:52:28;;;;;;;20.35;10.77;;;;;;;8.62;28.37;100342.16;7350177;19;20014;-68
2023/04/17 00:55:01;;;;;;;18.80;11.38;;;;;;;8.49;28.81;100343.72;7347825;19;20358;-64
2023/04/17 01:00:01;;;;;;;18.50;10.48;;;;;;;8.46;28.54;100338.59;7347662;19;20484;-64
2023/04/17 01:02:28;;;;;;;18.50;11.07;;;;;;;8.37;28.75;100335.44;7347861;19;20017;-64
2023/04/17 01:04:54;;;;;;;20.88;12.48;;;;;;;8.40;28.85;100338.88;7347426;19;20026;-64
2023/04/17 01:07:20;;;;;;;16.70;10.43;;;;;;;8.41;28.98;100335.28;7348776;19;20358;-64
2023/04/17 01:09:46;;;;;;;20.55;11.00;;;;;;;8.31;28.94;100335.78;7347169;19;20015;-64
2023/04/17 01:12:22;;;;;;;23.70;12.13;;;;;;;8.37;28.92;100339.91;7344904;19;20016;-64
2023/04/17 01:14:50;;;;;;;14.82;9.75;;;;;;;8.29;28.99;100342.06;7347061;19;20503;-65
2023/04/17 01:17:14;;;;;;;19.30;10.25;;;;;;;8.23;29.25;100337.06;7345758;19;20035;-67
2023/04/17 01:19:44;;;;;;;22.33;11.32;;;;;;;8.20;29.27;100342.53;7347571;19;20334;-64
2023/04/17 01:22:11;;;;;;;18.80;11.10;;;;;;;8.17;29.23;100345.34;7347841;19;20023;-65
2023/04/17 01:24:41;;;;;;;20.35;11.10;;;;;;;8.11;29.34;100346.53;7343740;19;20022;-64
2023/04/17 01:27:07;;;;;;;19.20;10.45;;;;;;;8.06;29.63;100345.88;7341405;19;20022;-63
2023/04/17 01:29:38;;;;;;;22.52;10.52;;;;;;;8.11;29.47;100340.34;7344246;19;20019;-63
2023/04/17 01:32:05;;;;;;;17.63;10.70;;;;;;;8.06;29.86;100337.91;7345241;19;20017;-64
2023/04/17 01:34:30;;;;;;;17.92;10.90;;;;;;;8.01;29.91;100337.31;7347759;19;20015;-64
2023/04/17 01:36:55;;;;;;;18.73;11.18;;;;;;;7.96;30.29;100345.47;7349517;19;20007;-63
2023/04/17 01:39:20;;;;;;;18.42;11.07;;;;;;;8.04;30.05;100347.75;7343618;19;20033;-64
2023/04/17 01:41:46;;;;;;;21.17;10.13;;;;;;;8.03;29.84;100335.41;7344934;19;20012;-64
2023/04/17 01:46:51;;;;;;;21.15;11.15;;;;;;;7.95;30.27;100334.94;7343398;19;20014;-63
2023/04/17 01:49:19;;;;;;;18.83;11.00;;;;;;;7.98;30.06;100350.72;7346383;19;20090;-61
2023/04/17 01:51:54;;;;;;;19.88;11.65;;;;;;;7.90;30.42;100339.63;7343877;19;20053;-62
2023/04/17 01:54:32;;;;;;;18.70;11.35;;;;;;;7.91;30.39;100343.97;7343056;19;20015;-61
2023/04/17 01:56:58;;;;;;;17.77;11.20;;;;;;;7.87;30.47;100340.63;7343896;19;20024;-61
2023/04/17 01:59:23;;;;;;;18.02;11.88;;;;;;;7.92;30.35;100351.00;7344027;19;20014;-61
2023/04/17 02:01:49;;;;;;;20.45;12.20;;;;;;;7.87;30.61;100345.94;7348962;19;20335;-64
2023/04/17 02:04:16;;;;;;;17.23;11.43;;;;;;;7.86;30.52;100344.22;7349095;19;20022;-60
2023/04/17 02:06:41;;;;;;;20.98;12.15;;;;;;;7.87;30.29;100339.78;7348911;19;20335;-62
2023/04/17 02:09:06;;;;;;;23.08;12.07;;;;;;;7.90;30.40;100350.25;7343203;19;20398;-61
2023/04/17 02:11:36;;;;;;;21.00;12.80;;;;;;;7.91;30.31;100343.97;7345029;19;20060;-60
2023/04/17 02:14:06;;;;;;;19.75;10.80;;;;;;;7.90;30.40;100340.47;7345755;19;20494;-61
2023/04/17 02:16:31;;;;;;;20.05;11.63;;;;;;;7.87;30.48;100345.94;7343961;19;20021;-61
2023/04/17 02:18:59;;;;;;;22.95;12.60;;;;;;;7.85;30.62;100341.63;7347782;19;20023;-61
2023/04/17 02:21:26;;;;;;;18.15;11.30;;;;;;;7.79;30.96;100328.69;7345257;19;20017;-62
2023/04/17 02:23:56;;;;;;;19.95;11.18;;;;;;;7.81;30.67;100334.75;7342388;19;20007;-61
2023/04/17 02:26:22;;;;;;;20.45;11.38;;;;;;;7.82;30.83;100341.78;7348076;19;20025;-62
2023/04/17 02:28:47;;;;;;;19.80;11.45;;;;;;;7.87;30.75;100345.06;7349978;19;20043;-61
2023/04/17 02:31:12;;;;;;;18.05;12.55;;;;;;;7.80;30.91;100333.03;7341722;19;20022;-66
2023/04/17 02:33:37;;;;;;;19.30;11.52;;;;;;;7.89;30.63;100344.06;7341304;19;20015;-61
2023/04/17 02:36:05;;;;;;;17.77;10.70;;;;;;;7.92;30.94;100341.25;7340840;19;20345;-61
2023/04/17 02:38:38;;;;;;;24.23;12.60;;;;;;;7.92;30.69;100338.59;7343919;19;20014;-63
2023/04/17 02:41:10;;;;;;;22.65;10.65;;;;;;;8.00;30.78;100346.19;7345537;19;20014;-62
2023/04/17 02:43:36;;;;;;;19.38;11.18;;;;;;;7.98;30.58;100333.00;7344922;19;20585;-65
2023/04/17 02:46:02;;;;;;;18.55;11.35;;;;;;;7.98;30.70;100337.44;7342896;19;20780;-67
2023/04/17 02:48:28;;;;;;;26.33;12.40;;;;;;;7.96;30.77;100334.84;7343513;19;20019;-68
2023/04/17 02:50:53;;;;;;;16.15;9.93;;;;;;;7.96;30.71;100340.16;7340487;19;20011;-66
2023/04/17 02:53:21;;;;;;;18.58;11.18;;;;;;;7.95;31.21;100348.22;7340555;19;20014;-66
2023/04/17 02:55:48;;;;;;;19.40;11.77;;;;;;;7.95;31.22;100354.38;7340111;19;20028;-66
2023/04/17 02:58:26;;;;;;;19.02;11.15;;;;;;;8.00;31.49;100344.41;7346587;19;20126;-67
2023/04/17 03:01:02;;;;;;;19.67;11.98;;;;;;;8.07;31.09;100344.94;7349084;19;20010;-68
2023/04/17 03:03:33;;;;;;;17.65;11.55;;;;;;;8.10;31.30;100355.44;7346190;19;20081;-70
2023/04/17 03:06:05;;;;;;;16.20;11.38;;;;;;;8.10;31.62;100344.81;7343283;19;20010;-69
2023/04/17 03:08:34;;;;;;;20.85;12.15;;;;;;;8.15;31.39;100361.34;7345106;19;20014;-69
2023/04/17 03:11:02;;;;;;;24.10;12.63;;;;;;;8.22;31.47;100367.22;7350615;19;20018;-70
2023/04/17 03:13:29;;;;;;;24.70;13.13;;;;;;;8.14;32.26;100370.25;7351079;19;20386;-77
2023/04/17 03:15:53;;;;;;;22.48;12.20;;;;;;;8.20;31.87;100375.28;7343207;19;20010;-67
2023/04/17 03:18:18;;;;;;;21.23;11.55;;;;;;;8.20;31.87;100372.63;7341695;19;20552;-69
2023/04/17 03:20:43;;;;;;;19.02;11.75;;;;;;;8.16;32.29;100379.00;7343880;19;20443;-68
2023/04/17 03:23:12;;;;;;;21.13;12.32;;;;;;;8.13;31.75;100365.88;7340293;19;20018;-67
2023/04/17 03:25:41;;;;;;;22.45;12.45;;;;;;;8.18;32.32;100374.47;7339633;19;20042;-69
2023/04/17 03:28:20;;;;;;;25.05;13.35;;;;;;;8.24;31.75;100373.34;7339782;19;20010;-67
2023/04/17 03:30:48;;;;;;;23.88;12.65;;;;;;;8.29;31.74;100372.16;7339738;19;20078;-66
2023/04/17 03:33:26;;;;;;;29.05;12.52;;;;;;;8.35;32.03;100365.72;7342702;19;20017;-67
2023/04/17 03:35:54;;;;;;;19.17;11.40;;;;;;;8.42;31.58;100368.91;7338481;19;20014;-68
2023/04/17 03:38:32;;;;;;;20.17;11.40;;;;;;;8.50;31.28;100370.22;7339174;19;20018;-68
2023/04/17 03:40:59;;;;;;;23.13;11.88;;;;;;;8.36;31.56;100370.06;7339911;19;20793;-68
2023/04/17 03:43:25;;;;;;;23.55;12.82;;;;;;;8.29;31.77;100379.25;7341800;19;20010;-68
2023/04/17 03:45:50;;;;;;;24.45;13.15;;;;;;;8.27;31.67;100376.66;7339489;19;20358;-67
2023/04/17 03:48:17;;;;;;;21.00;12.30;;;;;;;8.30;31.25;100367.69;7339238;19;20014;-66
2023/04/17 03:50:43;;;;;;;23.77;12.95;;;;;;;8.28;31.70;100378.38;7338731;19;20100;-68
2023/04/17 03:53:14;;;;;;;25.27;12.13;;;;;;;8.26;32.05;100376.75;7341194;19;20025;-67
2023/04/17 03:55:42;;;;;;;26.05;12.68;;;;;;;8.22;31.80;100372.53;7342108;19;20035;-67
2023/04/17 03:58:13;;;;;;;20.77;11.38;;;;;;;8.29;31.99;100380.13;7343460;19;20018;-68
2023/04/17 04:00:38;;;;;;;20.60;11.57;;;;;;;8.40;32.49;100381.41;7341557;19;20022;-68
2023/04/17 04:03:12;;;;;;;20.00;13.18;;;;;;;8.53;31.79;100378.03;7339149;19;20461;-69
2023/04/17 04:05:39;;;;;;;23.88;12.27;;;;;;;8.68;31.87;100384.38;7342271;19;20021;-68
2023/04/17 04:08:06;;;;;;;26.40;12.77;;;;;;;8.84;30.97;100390.59;7338676;19;20014;-70
2023/04/17 04:10:38;;;;;;;20.63;12.15;;;;;;;8.91;30.87;100384.03;7336701;19;20029;-69
2023/04/17 04:13:04;;;;;;;22.67;12.30;;;;;;;8.87;31.03;100379.81;7343474;19;20018;-70
2023/04/17 04:15:34;;;;;;;29.90;13.60;;;;;;;8.94;31.11;100388.31;7343937;19;20041;-69
2023/04/17 04:20:39;;;;;;;20.02;11.48;;;;;;;8.96;31.08;100379.31;7345333;19;20018;-68
2023/04/17 04:23:19;;;;;;;22.88;12.70;;;;;;;8.96;30.90;100374.00;7345863;19;20010;-68
2023/04/17 04:25:48;;;;;;;24.77;13.65;;;;;;;8.90;31.52;100377.00;7345478;19;20647;-70
2023/04/17 04:28:23;;;;;;;21.08;12.27;;;;;;;8.89;31.40;100385.91;7347632;19;20051;-70
2023/04/17 04:30:49;;;;;;;21.75;13.57;;;;;;;8.94;31.58;100391.81;7345282;19;20031;-70
2023/04/17 04:33:21;;;;;;;27.05;12.52;;;;;;;9.15;31.37;100391.63;7347305;19;20030;-65
2023/04/17 04:35:47;;;;;;;30.80;12.07;;;;;;;9.19;31.22;100387.88;7344108;19;20018;-66
2023/04/17 04:38:17;;;;;;;30.08;12.60;;;;;;;9.34;31.19;100385.25;7344982;19;20094;-65
2023/04/17 04:40:51;;;;;;;23.30;12.23;;;;;;;9.38;31.43;100385.91;7345192;19;20031;-66
2023/04/17 04:43:19;;;;;;;37.45;14.00;;;;;;;9.57;31.07;100391.09;7346184;19;20022;-66
2023/04/17 04:45:47;;;;;;;21.48;12.70;;;;;;;9.65;31.02;100384.41;7344777;19;20057;-65
2023/04/17 04:48:13;;;;;;;38.45;12.50;;;;;;;9.75;30.38;100382.94;7346574;19;20003;-64
2023/04/17 04:50:38;;;;;;;19.10;12.27;;;;;;;9.72;30.43;100383.09;7346802;19;20063;-66
2023/04/17 04:53:02;;;;;;;27.17;12.85;;;;;;;9.72;30.59;100388.44;7346672;19;20048;-66
2023/04/17 04:55:53;;;;;;;17.05;12.00;;;;;;;9.68;30.77;100396.69;7347529;19;20370;-65
2023/04/17 04:58:23;;;;;;;27.88;13.05;;;;;;;9.65;30.96;100400.38;7343999;19;20042;-66
2023/04/17 05:00:49;;;;;;;28.33;13.40;;;;;;;9.68;30.85;100389.56;7345109;19;20014;-64
2023/04/17 05:03:22;;;;;;;23.90;11.90;;;;;;;9.66;31.03;100391.44;7346782;19;20014;-66
2023/04/17 05:05:49;;;;;;;19.00;12.57;;;;;;;9.73;31.14;100384.81;7350865;19;20473;-67
2023/04/17 05:08:20;;;;;;;23.20;12.98;;;;;;;9.79;30.62;100389.81;7347440;19;20006;-65
2023/04/17 05:11:01;;;;;;;24.50;12.13;;;;;;;9.84;30.44;100381.56;7343679;19;20010;-66
2023/04/17 05:16:00;;;;;;;22.73;12.55;;;;;;;9.93;30.86;100385.53;7345203;19;20022;-68
2023/04/17 05:18:35;;;;;;;24.13;12.25;;;;;;;10.09;30.42;100394.34;7348138;19;20016;-68
2023/04/17 05:21:00;;;;;;;22.98;12.63;;;;;;;10.10;30.48;100388.91;7349482;19;20014;-68
2023/04/17 05:23:27;;;;;;;23.20;13.10;;;;;;;10.09;30.28;100352.56;7349941;19;20007;-69
2023/04/17 05:25:52;;;;;;;20.38;12.60;;;;;;;10.50;30.00;100390.13;7348925;19;20102;-67
2023/04/17 05:28:17;;;;;;;25.70;14.02;;;;;;;10.66;29.99;100392.75;7345429;19;20018;-68
2023/04/17 05:30:43;;;;;;;38.55;14.63;;;;;;;10.89;29.77;100399.38;7346508;19;20018;-68
2023/04/17 05:33:22;;;;;;;22.38;10.98;;;;;;;11.17;29.20;100386.03;7344482;19;20007;-68
2023/04/17 05:35:50;;;;;;;26.65;12.07;;;;;;;11.32;28.91;100386.03;7344046;19;20018;-68
2023/04/17 05:38:16;;;;;;;24.95;12.52;;;;;;;11.47;28.70;100383.28;7345776;19;20029;-68
2023/04/17 05:40:41;;;;;;;23.23;12.45;;;;;;;11.64;28.52;100377.72;7345617;19;20019;-68
2023/04/17 05:43:07;;;;;;;20.02;12.80;;;;;;;12.00;28.25;100381.66;7344494;19;20007;-68
2023/04/17 05:45:33;;;;;;;18.00;12.02;;;;;;;12.55;27.83;100375.28;7343313;19;20078;-68
2023/04/17 05:47:57;;;;;;;23.35;13.57;;;;;;;12.97;27.22;100371.50;7343444;19;20015;-67
2023/04/17 05:50:22;;;;;;;21.90;13.30;;;;;;;13.19;26.98;100369.06;7343654;19;20147;-67
2023/04/17 05:52:47;;;;;;;23.35;12.43;;;;;;;13.20;27.02;100373.47;7345031;19;20015;-66
2023/04/17 05:55:13;;;;;;;18.25;12.07;;;;;;;13.21;27.02;100368.94;7342540;19;20040;-65
2023/04/17 05:57:37;;;;;;;23.98;12.80;;;;;;;13.17;27.07;100368.31;7344807;19;20477;-65
2023/04/17 06:00:09;;;;;;;20.73;13.00;;;;;;;13.38;26.75;100372.13;7349653;19;20561;-64
2023/04/17 06:02:41;;;;;;;21.58;13.30;;;;;;;13.62;26.65;100365.97;7352884;19;20015;-65
2023/04/17 06:05:08;;;;;;;27.33;12.07;;;;;;;13.68;26.55;100368.19;7351307;19;20618;-66
2023/04/17 06:07:33;;;;;;;19.88;12.77;;;;;;;13.70;26.73;100363.59;7344781;19;20461;-65
2023/04/17 06:09:58;;;;;;;28.08;11.75;;;;;;;13.71;26.22;100359.94;7341758;19;20461;-64
2023/04/17 06:12:23;;;;;;;25.15;14.27;;;;;;;13.71;26.62;100368.00;7343506;19;20453;-64
2023/04/17 06:14:48;;;;;;;25.52;11.63;;;;;;;14.05;26.37;100372.59;7349598;19;20014;-66
2023/04/17 06:17:20;;;;;;;22.55;12.20;;;;;;;14.25;25.53;100368.41;7356161;19;20007;-64
2023/04/17 06:19:45;;;;;;;23.45;12.63;;;;;;;14.35;25.52;100373.94;7350133;19;20485;-70
2023/04/17 06:22:15;;;;;;;20.58;11.88;;;;;;;14.39;25.85;100372.72;7350846;19;20782;-70
2023/04/17 06:24:40;;;;;;;21.98;12.32;;;;;;;14.18;25.56;100380.56;7349775;19;20343;-70
2023/04/17 06:27:05;;;;;;;22.02;13.05;;;;;;;14.13;25.66;100377.38;7350315;19;20386;-66
2023/04/17 06:29:30;;;;;;;20.55;11.88;;;;;;;14.10;25.87;100378.47;7356063;19;20110;-65
2023/04/17 06:31:55;;;;;;;31.52;12.38;;;;;;;14.05;25.85;100377.94;7348674;19;20030;-64
2023/04/17 06:34:21;;;;;;;22.58;12.88;;;;;;;14.10;25.98;100374.94;7346632;19;20018;-64
2023/04/17 06:36:45;;;;;;;20.05;11.70;;;;;;;14.17;25.58;100382.41;7344916;19;20076;-63
2023/04/17 06:39:12;;;;;;;20.05;13.00;;;;;;;14.10;25.41;100383.84;7353030;19;20531;-64
2023/04/17 06:41:37;;;;;;;19.38;12.02;;;;;;;14.02;25.99;100382.66;7344596;19;20352;-65
2023/04/17 06:44:02;;;;;;;20.88;12.65;;;;;;;13.85;25.92;100383.94;7346548;19;20482;-66
2023/04/17 06:46:42;;;;;;;22.63;12.65;;;;;;;14.02;25.77;100388.03;7344432;19;20014;-66
2023/04/17 06:49:06;;;;;;;19.35;12.32;;;;;;;14.11;25.53;100388.19;7345292;19;20022;-67
2023/04/17 06:51:31;;;;;;;21.90;11.48;;;;;;;14.14;25.50;100381.75;7347136;19;20007;-65
2023/04/17 06:53:56;;;;;;;17.77;12.15;;;;;;;14.22;25.47;100390.06;7342029;19;20029;-65
2023/04/17 06:56:23;;;;;;;21.27;12.93;;;;;;;14.26;25.42;100396.09;7341928;19;20014;-66
2023/04/17 06:58:47;;;;;;;16.17;11.55;;;;;;;14.33;25.56;100386.63;7343611;19;20111;-68
2023/04/17 07:01:13;;;;;;;18.67;12.15;;;;;;;14.61;25.19;100390.78;7343109;19;20078;-66
2023/04/17 07:03:39;;;;;;;16.73;11.60;;;;;;;15.05;24.70;100387.34;7341290;19;20743;-66
2023/04/17 07:06:04;;;;;;;17.02;12.43;;;;;;;15.54;24.47;100381.63;7341240;19;20081;-67
2023/04/17 07:08:29;;;;;;;23.35;13.40;;;;;;;15.76;24.20;100383.47;7342861;19;20066;-66
2023/04/17 07:10:54;;;;;;;24.05;12.80;;;;;;;15.86;23.95;100381.75;7343005;19;20023;-66
2023/04/17 07:13:18;;;;;;;27.00;14.43;;;;;;;15.89;24.19;100382.34;7340620;19;20469;-67
2023/04/17 07:15:43;;;;;;;23.02;12.80;;;;;;;15.94;24.07;100385.50;7340513;19;20021;-65
2023/04/17 07:18:07;;;;;;;27.65;13.65;;;;;;;15.93;24.12;100382.94;7341703;19;20010;-65
2023/04/17 07:20:32;;;;;;;23.98;13.73;;;;;;;16.10;24.20;100389.63;7342086;19;20469;-67
2023/04/17 07:22:57;;;;;;;21.38;12.60;;;;;;;16.20;23.91;100386.06;7342333;19;20014;-68
2023/04/17 07:25:21;;;;;;;22.35;13.55;;;;;;;16.08;23.84;100381.69;7339757;19;20364;-67
2023/04/17 07:27:46;;;;;;;31.27;13.77;;;;;;;15.94;24.07;100387.34;7340602;19;20532;-67
2023/04/17 07:30:11;;;;;;;20.40;12.50;;;;;;;15.99;23.94;100393.19;7344827;19;20014;-66
2023/04/17 07:32:36;;;;;;;29.73;13.73;;;;;;;16.69;23.75;100384.66;7343661;19;20018;-66
2023/04/17 07:35:00;;;;;;;19.38;12.20;;;;;;;17.68;22.88;100397.56;7344222;19;20019;-67
2023/04/17 07:37:25;;;;;;;20.23;13.48;;;;;;;18.49;22.15;100383.78;7342592;19;20082;-66
2023/04/17 07:39:51;;;;;;;29.63;13.98;;;;;;;20.06;21.08;100379.50;7342110;19;20018;-67
2023/04/17 07:42:16;;;;;;;17.73;12.93;;;;;;;22.58;19.57;100378.34;7341680;19;20051;-68
2023/04/17 07:44:40;;;;;;;26.70;13.70;;;;;;;23.87;18.29;100369.13;7338927;19;20014;-66
2023/04/17 07:47:05;;;;;;;24.88;13.23;;;;;;;24.99;17.90;100373.16;7338619;19;20131;-68
2023/04/17 07:49:30;;;;;;;22.40;13.00;;;;;;;25.52;17.37;100367.47;7345600;19;20016;-67
2023/04/17 07:51:55;;;;;;;26.42;12.80;;;;;;;25.93;16.99;100364.28;7340536;19;20025;-68
2023/04/17 07:54:19;;;;;;;18.55;9.20;;;;;;;25.48;16.82;100371.63;7343228;19;20026;-65
2023/04/17 07:56:45;;;;;;;16.70;10.60;;;;;;;25.00;16.96;100372.13;7337727;19;20423;-67
2023/04/17 07:59:10;;;;;;;10.90;7.45;;;;;;;25.86;16.37;100368.78;7339144;19;20022;-66
2023/04/17 08:01:35;;;;;;;13.20;9.43;;;;;;;27.22;16.10;100368.75;7340160;19;20011;-66
2023/04/17 08:03:59;;;;;;;17.65;10.55;;;;;;;29.55;15.02;100365.41;7338608;19;20011;-67
2023/04/17 08:06:25;;;;;;;23.65;10.77;;;;;;;30.48;13.96;100360.31;7338625;19;20010;-66
2023/04/17 08:08:50;;;;;;;14.48;8.20;;;;;;;30.05;14.13;100363.75;7340721;19;20046;-65
2023/04/17 08:11:15;;;;;;;14.00;9.45;;;;;;;30.64;13.94;100362.59;7336858;19;20438;-66
2023/04/17 08:13:39;;;;;;;13.15;8.70;;;;;;;30.91;13.93;100363.22;7338519;19;20014;-66
2023/04/17 08:16:04;;;;;;;17.55;12.20;;;;;;;29.34;14.42;100362.88;7337923;19;20110;-65
2023/04/17 08:18:31;;;;;;;11.35;7.03;;;;;;;29.20;14.55;100362.91;7338581;19;20042;-65
2023/04/17 08:20:55;;;;;;;11.07;7.38;;;;;;;29.49;14.14;100360.75;7338544;19;20099;-65
2023/04/17 08:23:20;;;;;;;11.35;6.70;;;;;;;29.33;13.90;100355.69;7338668;19;20115;-65
2023/04/17 08:25:45;;;;;;;13.75;7.10;;;;;;;28.98;13.96;100371.56;7339100;19;20015;-66
2023/04/17 08:28:09;;;;;;;11.23;7.25;;;;;;;28.02;14.42;100341.59;7343688;19;20018;-70
2023/04/17 08:30:34;;;;;;;11.10;7.20;;;;;;;28.35;14.32;100355.41;7344047;19;20013;-69
2023/04/17 08:32:59;;;;;;;11.75;7.43;;;;;;;28.81;14.56;100347.28;7343228;19;20042;-68
2023/04/17 08:35:25;;;;;;;17.10;6.88;;;;;;;29.52;13.94;100347.44;7341014;19;20035;-67
2023/04/17 08:37:50;;;;;;;9.93;8.02;;;;;;;28.33;13.94;100345.75;7342353;19;20018;-68
2023/04/17 08:40:16;;;;;;;9.02;6.85;;;;;;;26.32;14.96;100352.97;7341683;19;20469;-67
2023/04/17 08:42:46;;;;;;;16.67;7.85;;;;;;;24.87;16.15;100351.75;7342221;19;20021;-68
2023/04/17 08:45:12;;;;;;;12.63;7.68;;;;;;;23.92;17.03;100344.09;7340762;19;20094;-68
2023/04/17 08:47:38;;;;;;;9.30;7.03;;;;;;;23.61;17.19;100349.50;7343742;19;19999;-69
2023/04/17 08:50:08;;;;;;;14.75;7.50;;;;;;;23.26;17.41;100348.06;7342273;19;20024;-69
2023/04/17 08:52:32;;;;;;;13.80;7.00;;;;;;;22.55;18.19;100360.53;7342982;19;20010;-69
2023/04/17 08:54:59;;;;;;;12.73;6.90;;;;;;;22.19;17.99;100348.25;7340266;19;20485;-69
2023/04/17 08:57:24;;;;;;;7.70;6.00;;;;;;;22.40;17.98;100351.34;7341028;19;20014;-67
2023/04/17 08:59:48;;;;;;;9.60;6.22;;;;;;;24.83;16.83;100338.69;7344167;19;20022;-66
2023/04/17 09:02:13;;;;;;;9.32;6.32;;;;;;;26.98;15.76;100332.56;7349327;19;20322;-70
2023/04/17 09:04:42;;;;;;;8.88;5.93;;;;;;;28.32;14.23;100335.81;7348353;19;20006;-69
2023/04/17 09:07:11;;;;;;;9.38;6.20;;;;;;;28.98;13.89;100333.97;7347200;19;20077;-67
2023/04/17 09:09:55;;;;;;;11.32;6.22;;;;;;;28.59;13.83;100328.44;7350188;19;20021;-67
2023/04/17 09:12:22;;;;;;;11.48;6.88;;;;;;;27.07;14.68;100342.34;7348199;19;20031;-66
2023/04/17 09:14:47;;;;;;;13.57;7.15;;;;;;;26.12;15.56;100333.59;7346017;19;20018;-73
2023/04/17 09:17:16;;;;;;;10.15;6.57;;;;;;;25.88;15.72;100334.78;7351059;19;20041;-67
2023/04/17 09:20:06;;;;;;;8.35;5.93;;;;;;;26.14;15.71;100328.78;7346854;19;20041;-66
2023/04/17 09:22:32;;;;;;;16.92;7.70;;;;;;;25.46;15.89;100334.63;7347434;19;20442;-66
2023/04/17 09:24:58;;;;;;;9.50;6.45;;;;;;;26.54;15.55;100326.47;7345812;19;20470;-67
2023/04/17 09:27:25;;;;;;;10.25;5.75;;;;;;;26.61;14.90;100325.50;7344099;19;20014;-65
2023/04/17 09:30:03;;;;;;;9.75;6.28;;;;;;;26.30;15.17;100327.72;7345167;19;20015;-66
2023/04/17 09:32:32;;;;;;;9.68;5.60;;;;;;;25.36;15.83;100326.72;7345807;19;20018;-65
2023/04/17 09:35:00;;;;;;;9.00;5.53;;;;;;;26.16;15.80;100326.72;7344247;19;20051;-66
2023/04/17 09:37:30;;;;;;;11.95;6.63;;;;;;;25.79;15.75;100335.09;7346250;19;20084;-66
2023/04/17 09:40:00;;;;;;;6.97;6.00;;;;;;;25.56;16.34;100327.84;7345099;19;20042;-69
2023/04/17 09:42:26;;;;;;;10.50;6.28;;;;;;;25.11;16.20;100320.69;7344401;19;20018;-68
2023/04/17 09:44:51;;;;;;;11.88;5.63;;;;;;;25.04;16.18;100318.91;7344679;19;20014;-68
2023/04/17 09:47:17;;;;;;;8.82;6.03;;;;;;;24.54;16.64;100323.94;7343132;19;20306;-68
2023/04/17 09:49:48;;;;;;;9.43;5.97;;;;;;;23.67;17.31;100321.59;7342688;19;20014;-67
2023/04/17 09:52:13;;;;;;;7.10;5.60;;;;;;;22.68;17.82;100327.41;7342414;19;20021;-68
2023/04/17 09:54:38;;;;;;;9.23;5.55;;;;;;;21.74;18.54;100319.59;7341726;19;20010;-66
2023/04/17 09:57:07;;;;;;;13.50;6.38;;;;;;;21.48;18.82;100322.38;7343694;19;20015;-66
2023/04/17 09:59:33;;;;;;;7.20;5.22;;;;;;;20.96;19.18;100322.41;7341885;19;20014;-66
2023/04/17 10:01:59;;;;;;;11.63;5.80;;;;;;;21.03;19.16;100319.91;7343495;19;20505;-68
2023/04/17 10:04:24;;;;;;;13.95;5.63;;;;;;;20.93;19.32;100325.44;7343488;19;20014;-71
2023/04/17 10:06:49;;;;;;;6.93;4.80;;;;;;;20.42;19.65;100317.28;7343835;19;20011;-68
2023/04/17 10:09:14;;;;;;;7.68;5.13;;;;;;;20.22;19.97;100313.81;7343801;19;20024;-70
2023/04/17 10:11:45;;;;;;;7.82;5.50;;;;;;;19.86;20.79;100311.09;7342905;19;20038;-70
2023/04/17 10:14:26;;;;;;;9.95;5.30;;;;;;;19.86;21.10;100311.09;7341665;19;20018;-68
2023/04/17 10:16:52;;;;;;;10.23;5.93;;;;;;;19.65;20.86;100315.94;7341709;19;20341;-72
2023/04/17 10:19:35;;;;;;;9.43;5.57;;;;;;;19.64;21.13;100311.53;7342394;19;20023;-70
2023/04/17 10:22:18;;;;;;;7.55;5.03;;;;;;;19.61;20.94;100316.41;7347950;19;20418;-69
2023/04/17 10:24:52;;;;;;;6.40;4.85;;;;;;;19.13;21.00;100325.56;7349817;19;20014;-69
2023/04/17 10:27:23;;;;;;;9.57;4.63;;;;;;;18.78;21.72;100318.13;7353861;19;20017;-69
2023/04/17 10:29:51;;;;;;;7.25;4.63;;;;;;;18.20;22.15;100323.53;7354299;19;20349;-68
2023/04/17 10:32:16;;;;;;;7.80;5.10;;;;;;;17.83;22.44;100315.28;7359769;19;20490;-68
2023/04/17 10:34:40;;;;;;;7.53;5.43;;;;;;;17.64;22.63;100321.47;7348165;19;20485;-67
2023/04/17 10:37:05;;;;;;;7.60;4.95;;;;;;;17.53;22.75;100326.09;7344813;19;20013;-65
2023/04/17 10:39:50;;;;;;;10.25;4.80;;;;;;;17.41;22.91;100323.50;7345673;19;20014;-67
2023/04/17 10:42:20;;;;;;;10.70;5.43;;;;;;;17.38;22.84;100323.75;7346421;19;20014;-67
2023/04/17 10:44:45;;;;;;;10.38;4.40;;;;;;;17.43;22.97;100313.44;7348857;19;20018;-68
2023/04/17 10:47:13;;;;;;;6.60;4.38;;;;;;;17.52;22.98;100319.00;7348421;19;20017;-65
2023/04/17 10:49:52;;;;;;;7.75;4.90;;;;;;;17.58;22.97;100329.25;7347498;19;20018;-68
2023/04/17 10:52:32;;;;;;;8.68;5.22;;;;;;;17.57;23.12;100330.22;7345813;19;20011;-63
2023/04/17 10:55:06;;;;;;;7.22;4.22;;;;;;;17.76;23.25;100333.84;7346437;19;20021;-66
2023/04/17 10:57:55;;;;;;;11.38;6.03;;;;;;;18.17;22.86;100331.09;7341206;19;20019;-64
2023/04/17 11:00:28;;;;;;;18.13;6.53;;;;;;;17.96;23.28;100320.38;7339882;19;20078;-67
2023/04/17 11:02:53;;;;;;;9.80;5.30;;;;;;;17.87;23.41;100315.84;7343640;19;20082;-67
2023/04/17 11:05:19;;;;;;;12.15;6.28;;;;;;;17.97;23.33;100322.94;7345653;19;20014;-69
2023/04/17 11:07:49;;;;;;;8.10;5.25;;;;;;;18.30;22.78;100328.94;7344066;19;20119;-69
2023/04/17 11:10:15;;;;;;;11.50;6.05;;;;;;;18.52;22.78;100317.84;7343120;19;20018;-69
2023/04/17 11:12:44;;;;;;;9.40;4.90;;;;;;;18.70;22.59;100332.34;7343243;19;20035;-70
2023/04/17 11:15:09;;;;;;;6.45;4.82;;;;;;;18.65;22.47;100329.22;7344553;19;20031;-67
2023/04/17 11:17:34;;;;;;;10.77;5.78;;;;;;;18.72;22.51;100322.25;7342720;19;20014;-67
2023/04/17 11:19:59;;;;;;;14.48;6.65;;;;;;;18.73;22.50;100321.28;7342633;19;20017;-68
2023/04/17 11:22:23;;;;;;;10.75;5.35;;;;;;;18.70;22.99;100318.00;7340181;19;20034;-66
2023/04/17 11:24:51;;;;;;;8.75;5.35;;;;;;;18.64;22.95;100321.25;7341792;19;20051;-68
2023/04/17 11:27:16;;;;;;;11.30;5.70;;;;;;;18.62;23.23;100307.06;7341931;19;20007;-68
2023/04/17 11:29:40;;;;;;;10.57;5.72;;;;;;;18.71;23.27;100308.91;7344653;19;20023;-68